createdAt,value
2022-09-06T00:00:43.705Z,4.35
2022-09-06T00:10:45.885Z,4.55
2022-09-06T00:20:48.093Z,7.80
2022-09-06T00:30:50.448Z,4.90
2022-09-06T00:40:52.927Z,4.57
2022-09-06T00:50:59.881Z,5.00
2022-09-06T01:01:02.213Z,4.60
2022-09-06T01:11:19.225Z,4.75
2022-09-06T01:21:50.384Z,4.45
2022-09-06T01:31:58.881Z,4.82
2022-09-06T01:42:07.636Z,3.55
2022-09-06T02:02:38.676Z,4.63
2022-09-06T02:12:43.289Z,4.10
2022-09-06T02:22:48.242Z,4.38
2022-09-06T02:32:58.192Z,4.47
2022-09-06T02:43:01.040Z,4.55
2022-09-06T02:53:09.630Z,4.38
2022-09-06T03:03:12.261Z,5.00
2022-09-06T03:13:14.380Z,5.97
2022-09-06T03:23:17.777Z,5.07
2022-09-06T03:33:20.466Z,5.15
2022-09-06T03:43:24.428Z,5.65
2022-09-06T03:53:28.556Z,3.85
2022-09-06T04:03:31.354Z,4.57
2022-09-06T04:13:34.527Z,3.67
2022-09-06T04:23:39.920Z,3.92
2022-09-06T04:33:42.677Z,4.38
2022-09-06T04:43:45.134Z,3.97
2022-09-06T04:53:48.142Z,3.28
2022-09-06T05:03:53.011Z,3.00
2022-09-06T05:13:57.281Z,3.45
2022-09-06T05:23:59.393Z,3.38
2022-09-06T05:34:01.617Z,2.28
2022-09-06T05:44:03.959Z,3.58
2022-09-06T05:54:06.796Z,5.80
2022-09-06T06:04:09.197Z,6.40
2022-09-06T06:14:11.369Z,6.78
2022-09-06T06:24:13.518Z,6.10
2022-09-06T06:34:16.632Z,8.00
2022-09-06T06:44:18.774Z,8.75
2022-09-06T06:54:20.920Z,8.88
2022-09-06T07:04:23.174Z,6.85
2022-09-06T07:14:25.350Z,9.73
2022-09-06T07:24:27.476Z,7.10
2022-09-06T07:34:29.582Z,5.93
2022-09-06T07:44:31.728Z,6.63
2022-09-06T07:54:33.950Z,7.32
2022-09-06T08:04:36.081Z,7.70
2022-09-06T08:14:38.262Z,5.25
2022-09-06T08:24:40.380Z,5.32
2022-09-06T08:34:42.669Z,5.68
2022-09-06T08:55:15.494Z,5.60
2022-09-06T09:05:30.127Z,6.10
2022-09-06T09:15:34.255Z,5.53
2022-09-06T09:25:39.579Z,5.13
2022-09-06T09:35:42.392Z,4.60
2022-09-06T09:45:45.488Z,4.57
2022-09-06T09:55:49.289Z,4.28
2022-09-06T10:06:02.717Z,4.38
2022-09-06T10:16:06.329Z,3.58
2022-09-06T10:37:20.584Z,3.83
2022-09-06T10:47:32.025Z,5.75
2022-09-06T11:08:46.993Z,4.03
2022-09-06T11:19:06.605Z,3.50
2022-09-06T11:29:17.754Z,4.78
2022-09-06T11:49:53.492Z,3.88
2022-09-06T12:00:01.833Z,3.60
2022-09-06T12:10:31.726Z,3.80
2022-09-06T12:20:48.847Z,3.47
2022-09-06T12:30:51.457Z,3.30
2022-09-06T12:40:58.680Z,3.58
2022-09-06T12:51:03.370Z,3.65
2022-09-06T13:01:33.436Z,3.00
2022-09-06T13:11:39.935Z,3.45
2022-09-06T13:21:44.296Z,2.80
2022-09-06T13:31:48.572Z,3.80
2022-09-06T13:42:05.977Z,3.50
2022-09-06T14:02:14.201Z,3.22
2022-09-06T14:12:16.348Z,3.47
2022-09-06T14:22:18.543Z,3.95
2022-09-06T14:32:22.679Z,4.03
2022-09-06T14:42:25.151Z,3.28
2022-09-06T14:52:27.350Z,2.72
2022-09-06T15:02:29.613Z,3.00
2022-09-06T15:12:32.006Z,5.07
2022-09-06T15:22:35.786Z,3.30
2022-09-06T15:32:38.106Z,3.40
2022-09-06T15:42:40.248Z,3.03
2022-09-06T15:52:42.356Z,2.72
2022-09-06T16:02:44.928Z,3.40
2022-09-06T16:12:50.537Z,2.97
2022-09-06T16:22:52.878Z,3.05
2022-09-06T16:32:55.026Z,3.40
2022-09-06T16:42:57.466Z,2.53
2022-09-06T16:52:59.763Z,3.47
2022-09-06T17:03:01.893Z,2.88
2022-09-06T17:13:04.083Z,3.28
2022-09-06T17:23:06.204Z,3.13
2022-09-06T17:33:08.861Z,2.83
2022-09-06T17:43:11.282Z,3.17
2022-09-06T17:53:13.910Z,2.35
2022-09-06T18:03:16.069Z,2.92
2022-09-06T18:13:18.196Z,3.00
2022-09-06T18:23:20.758Z,2.63
2022-09-06T18:33:23.840Z,3.78
2022-09-06T18:43:37.859Z,3.35
2022-09-06T18:53:44.759Z,2.92
2022-09-06T19:03:47.400Z,3.22
2022-09-06T19:13:52.801Z,3.10
2022-09-06T19:24:04.103Z,3.03
2022-09-06T19:34:07.580Z,3.17
2022-09-06T19:44:11.730Z,4.30
2022-09-06T19:54:15.646Z,2.67
2022-09-06T20:04:17.914Z,2.85
2022-09-06T20:14:20.045Z,2.80
2022-09-06T20:24:22.342Z,3.40
2022-09-06T20:34:24.528Z,4.18
2022-09-06T20:44:26.733Z,7.38
2022-09-06T20:54:29.596Z,3.88
2022-09-06T21:04:31.738Z,3.95
2022-09-06T21:14:33.982Z,3.90
2022-09-06T21:24:36.339Z,3.72
2022-09-06T21:34:38.518Z,3.85
2022-09-06T21:44:40.854Z,3.83
2022-09-06T21:54:43.037Z,3.90
2022-09-06T22:10:13.365Z,4.13
2022-09-06T22:20:15.715Z,4.18
2022-09-06T22:30:19.203Z,4.05
2022-09-06T22:40:22.958Z,4.18
2022-09-06T22:50:26.482Z,3.83
2022-09-06T23:00:29.472Z,3.90
2022-09-06T23:10:32.327Z,4.00
2022-09-06T23:20:36.974Z,4.10
2022-09-06T23:30:39.372Z,4.40
2022-09-06T23:40:41.499Z,4.97
2022-09-06T23:50:44.937Z,5.03
